KPTW/PTW METAR and TAF weather

Enter ICAO airport designator
Station Type Date Time Source
KPTW METAR 2019/08/18 10:03 UTC NOAA

KPTW 181003Z AUTO 00000KT 5SM BR BKN004 22/22 A3003 RMK AO2 T02220222


Station Type Date Time Source
KPTW Decoded METAR 2019/08/18 10:03 UTC NOAA

Station name not available
Aug 18, 2019 - 06:03 AM EDT / 2019.08.18 1003 UTC
Wind: Calm:0
Visibility: 5 mile(s):0
Sky conditions: mostly cloudy
Weather: mist
Temperature: 72.0 F (22.2 C)
Dew Point: 72.0 F (22.2 C)
Relative Humidity: 100%
Pressure (altimeter): 30.03 in. Hg (1016 hPa)
ob: KPTW 181003Z AUTO 00000KT 5SM BR BKN004 22/22 A3003 RMK AO2 T02220222
cycle: 10

Station Type Date Time Source
KPTW TAF UTC NOAA

Error!

Example: see airport list